sensor_id;sensor_type;location;lat;lon;timestamp;pressure;altitude;pressure_sealevel;temperature;humidity
72636;BME280;60679;48.888;15.544;2023-03-01T00:01:18;97110.91;;;-5.92;67.74
72636;BME280;60679;48.888;15.544;2023-03-01T00:03:44;97110.16;;;-5.94;68.10
72636;BME280;60679;48.888;15.544;2023-03-01T00:06:09;97111.22;;;-5.97;68.20
72636;BME280;60679;48.888;15.544;2023-03-01T00:08:35;97113.19;;;-6.00;68.24
72636;BME280;60679;48.888;15.544;2023-03-01T00:11:09;97112.75;;;-6.07;68.04
72636;BME280;60679;48.888;15.544;2023-03-01T00:13:35;97107.72;;;-6.10;68.31
72636;BME280;60679;48.888;15.544;2023-03-01T00:16:11;97113.72;;;-6.08;67.92
72636;BME280;60679;48.888;15.544;2023-03-01T00:18:38;97109.59;;;-6.12;68.32
72636;BME280;60679;48.888;15.544;2023-03-01T00:21:04;97117.59;;;-6.13;68.05
72636;BME280;60679;48.888;15.544;2023-03-01T00:23:31;97105.59;;;-6.17;68.25
72636;BME280;60679;48.888;15.544;2023-03-01T00:25:57;97112.00;;;-6.21;68.37
72636;BME280;60679;48.888;15.544;2023-03-01T00:28:22;97104.84;;;-6.19;68.30
72636;BME280;60679;48.888;15.544;2023-03-01T00:30:48;97110.72;;;-6.28;68.51
72636;BME280;60679;48.888;15.544;2023-03-01T00:33:13;97099.75;;;-6.35;68.25
72636;BME280;60679;48.888;15.544;2023-03-01T00:35:39;97105.44;;;-6.41;68.48
72636;BME280;60679;48.888;15.544;2023-03-01T00:38:04;97098.59;;;-6.43;68.46
72636;BME280;60679;48.888;15.544;2023-03-01T00:40:32;97099.31;;;-6.41;68.85
72636;BME280;60679;48.888;15.544;2023-03-01T00:42:58;97093.56;;;-6.34;68.69
72636;BME280;60679;48.888;15.544;2023-03-01T00:45:24;97090.41;;;-6.26;68.40
72636;BME280;60679;48.888;15.544;2023-03-01T00:47:50;97082.47;;;-6.25;68.50
72636;BME280;60679;48.888;15.544;2023-03-01T00:50:17;97087.91;;;-6.28;68.43
72636;BME280;60679;48.888;15.544;2023-03-01T00:52:42;97083.78;;;-6.32;68.46
72636;BME280;60679;48.888;15.544;2023-03-01T00:55:08;97088.44;;;-6.35;68.31
72636;BME280;60679;48.888;15.544;2023-03-01T00:57:34;97088.81;;;-6.41;68.75
72636;BME280;60679;48.888;15.544;2023-03-01T00:59:59;97089.31;;;-6.49;68.44
72636;BME280;60679;48.888;15.544;2023-03-01T01:02:25;97086.13;;;-6.54;68.64
72636;BME280;60679;48.888;15.544;2023-03-01T01:04:53;97089.06;;;-6.59;68.62
72636;BME280;60679;48.888;15.544;2023-03-01T01:07:18;97096.09;;;-6.59;68.91
72636;BME280;60679;48.888;15.544;2023-03-01T01:09:45;97091.78;;;-6.60;68.57
72636;BME280;60679;48.888;15.544;2023-03-01T01:12:11;97086.44;;;-6.59;68.73
72636;BME280;60679;48.888;15.544;2023-03-01T01:14:37;97076.47;;;-6.54;68.84
72636;BME280;60679;48.888;15.544;2023-03-01T01:17:03;97076.19;;;-6.49;68.96
72636;BME280;60679;48.888;15.544;2023-03-01T01:19:28;97071.75;;;-6.49;68.92
72636;BME280;60679;48.888;15.544;2023-03-01T01:21:54;97075.03;;;-6.45;69.13
72636;BME280;60679;48.888;15.544;2023-03-01T01:24:19;97075.78;;;-6.43;68.82
72636;BME280;60679;48.888;15.544;2023-03-01T01:26:45;97063.88;;;-6.49;68.66
72636;BME280;60679;48.888;15.544;2023-03-01T01:29:11;97063.47;;;-6.55;69.07
72636;BME280;60679;48.888;15.544;2023-03-01T01:31:38;97059.88;;;-6.54;69.13
72636;BME280;60679;48.888;15.544;2023-03-01T01:34:05;97062.31;;;-6.51;68.91
72636;BME280;60679;48.888;15.544;2023-03-01T01:36:32;97060.00;;;-6.56;68.75
72636;BME280;60679;48.888;15.544;2023-03-01T01:38:58;97053.25;;;-6.60;68.91
72636;BME280;60679;48.888;15.544;2023-03-01T01:41:25;97049.75;;;-6.60;68.96
72636;BME280;60679;48.888;15.544;2023-03-01T01:52:04;97034.72;;;-6.71;69.08
72636;BME280;60679;48.888;15.544;2023-03-01T01:57:16;97036.69;;;-6.74;69.54
72636;BME280;60679;48.888;15.544;2023-03-01T01:59:45;97035.88;;;-6.75;69.49
72636;BME280;60679;48.888;15.544;2023-03-01T02:02:12;97035.56;;;-6.70;69.42
72636;BME280;60679;48.888;15.544;2023-03-01T02:04:38;97040.09;;;-6.72;69.03
72636;BME280;60679;48.888;15.544;2023-03-01T02:07:14;97032.22;;;-6.72;69.45
72636;BME280;60679;48.888;15.544;2023-03-01T02:09:42;97032.63;;;-6.66;69.58
72636;BME280;60679;48.888;15.544;2023-03-01T02:12:10;97029.72;;;-6.61;69.52
72636;BME280;60679;48.888;15.544;2023-03-01T02:14:36;97025.53;;;-6.64;69.65
72636;BME280;60679;48.888;15.544;2023-03-01T02:17:01;97032.75;;;-6.67;69.62
72636;BME280;60679;48.888;15.544;2023-03-01T02:19:40;97022.44;;;-6.70;69.18
72636;BME280;60679;48.888;15.544;2023-03-01T02:24:52;97022.09;;;-6.78;69.36
72636;BME280;60679;48.888;15.544;2023-03-01T02:27:27;97019.47;;;-6.78;69.63
72636;BME280;60679;48.888;15.544;2023-03-01T02:29:57;97024.06;;;-6.82;69.28
72636;BME280;60679;48.888;15.544;2023-03-01T02:32:22;97025.13;;;-6.84;69.86
72636;BME280;60679;48.888;15.544;2023-03-01T02:34:53;97026.81;;;-6.83;69.57
72636;BME280;60679;48.888;15.544;2023-03-01T02:37:21;97025.31;;;-6.87;69.45
72636;BME280;60679;48.888;15.544;2023-03-01T02:39:58;97026.47;;;-6.91;69.44
72636;BME280;60679;48.888;15.544;2023-03-01T02:42:35;97031.59;;;-6.90;69.49
72636;BME280;60679;48.888;15.544;2023-03-01T02:45:05;97031.59;;;-6.90;69.53
72636;BME280;60679;48.888;15.544;2023-03-01T02:47:30;97034.03;;;-6.87;69.52
72636;BME280;60679;48.888;15.544;2023-03-01T02:49:55;97031.09;;;-6.82;69.87
72636;BME280;60679;48.888;15.544;2023-03-01T02:52:23;97039.75;;;-6.80;69.46
72636;BME280;60679;48.888;15.544;2023-03-01T02:57:29;97039.81;;;-6.82;69.81
72636;BME280;60679;48.888;15.544;2023-03-01T02:59:57;97036.00;;;-6.90;69.70
72636;BME280;60679;48.888;15.544;2023-03-01T03:02:29;97045.22;;;-6.97;69.74
72636;BME280;60679;48.888;15.544;2023-03-01T03:07:34;97047.59;;;-7.07;69.65
72636;BME280;60679;48.888;15.544;2023-03-01T03:10:00;97039.81;;;-7.09;69.88
72636;BME280;60679;48.888;15.544;2023-03-01T03:12:26;97038.69;;;-7.05;70.03
72636;BME280;60679;48.888;15.544;2023-03-01T03:14:51;97048.13;;;-7.02;70.01
72636;BME280;60679;48.888;15.544;2023-03-01T03:17:17;97043.84;;;-7.03;69.87
72636;BME280;60679;48.888;15.544;2023-03-01T03:19:42;97041.03;;;-7.00;69.97
72636;BME280;60679;48.888;15.544;2023-03-01T03:22:13;97046.91;;;-6.96;70.04
72636;BME280;60679;48.888;15.544;2023-03-01T03:24:38;97048.41;;;-6.92;69.92
72636;BME280;60679;48.888;15.544;2023-03-01T03:27:05;97048.47;;;-6.94;69.96
72636;BME280;60679;48.888;15.544;2023-03-01T03:29:30;97046.91;;;-6.96;70.09
72636;BME280;60679;48.888;15.544;2023-03-01T03:31:56;97047.09;;;-6.99;70.17
72636;BME280;60679;48.888;15.544;2023-03-01T03:34:21;97042.03;;;-7.03;70.06
72636;BME280;60679;48.888;15.544;2023-03-01T03:36:47;97047.00;;;-6.98;70.02
72636;BME280;60679;48.888;15.544;2023-03-01T03:39:12;97045.97;;;-6.95;70.17
72636;BME280;60679;48.888;15.544;2023-03-01T03:41:37;97040.72;;;-6.95;70.33
72636;BME280;60679;48.888;15.544;2023-03-01T03:44:03;97043.84;;;-7.03;70.08
72636;BME280;60679;48.888;15.544;2023-03-01T03:46:28;97048.44;;;-7.07;70.04
72636;BME280;60679;48.888;15.544;2023-03-01T03:48:54;97050.22;;;-7.07;70.18
72636;BME280;60679;48.888;15.544;2023-03-01T03:51:19;97048.13;;;-7.02;70.32
72636;BME280;60679;48.888;15.544;2023-03-01T03:53:45;97040.59;;;-6.94;70.13
72636;BME280;60679;48.888;15.544;2023-03-01T03:56:11;97040.88;;;-6.84;70.39
72636;BME280;60679;48.888;15.544;2023-03-01T03:58:37;97031.75;;;-6.79;70.16
72636;BME280;60679;48.888;15.544;2023-03-01T04:01:03;97038.91;;;-6.81;70.66
72636;BME280;60679;48.888;15.544;2023-03-01T04:03:29;97026.16;;;-6.87;70.17
72636;BME280;60679;48.888;15.544;2023-03-01T04:05:57;97030.41;;;-6.98;70.36
72636;BME280;60679;48.888;15.544;2023-03-01T04:08:23;97022.28;;;-7.08;70.16
72636;BME280;60679;48.888;15.544;2023-03-01T04:10:51;97021.53;;;-7.10;70.27
72636;BME280;60679;48.888;15.544;2023-03-01T04:13:20;97022.19;;;-7.07;70.22
72636;BME280;60679;48.888;15.544;2023-03-01T04:15:48;97019.38;;;-7.04;70.33
72636;BME280;60679;48.888;15.544;2023-03-01T04:18:15;97020.66;;;-6.96;70.66
72636;BME280;60679;48.888;15.544;2023-03-01T04:20:42;97011.66;;;-6.92;70.41
72636;BME280;60679;48.888;15.544;2023-03-01T04:23:11;97019.34;;;-6.89;70.47
72636;BME280;60679;48.888;15.544;2023-03-01T04:28:19;97011.84;;;-6.95;70.14
72636;BME280;60679;48.888;15.544;2023-03-01T04:30:44;97012.16;;;-7.00;70.61
72636;BME280;60679;48.888;15.544;2023-03-01T04:33:10;97008.03;;;-7.04;70.37
72636;BME280;60679;48.888;15.544;2023-03-01T04:35:37;97005.31;;;-7.03;70.42
72636;BME280;60679;48.888;15.544;2023-03-01T04:38:04;97005.09;;;-6.99;70.45
72636;BME280;60679;48.888;15.544;2023-03-01T04:43:04;96999.47;;;-6.93;70.66
72636;BME280;60679;48.888;15.544;2023-03-01T04:45:32;96998.94;;;-6.98;70.61
72636;BME280;60679;48.888;15.544;2023-03-01T04:47:59;97004.28;;;-7.00;70.68
72636;BME280;60679;48.888;15.544;2023-03-01T04:50:25;97005.88;;;-6.97;70.63
72636;BME280;60679;48.888;15.544;2023-03-01T04:52:50;96998.63;;;-6.94;70.67
72636;BME280;60679;48.888;15.544;2023-03-01T04:55:16;96985.06;;;-7.00;70.46
72636;BME280;60679;48.888;15.544;2023-03-01T04:57:41;96985.50;;;-6.94;71.03
72636;BME280;60679;48.888;15.544;2023-03-01T05:00:10;96985.50;;;-6.94;70.36
72636;BME280;60679;48.888;15.544;2023-03-01T05:02:56;96996.63;;;-7.03;70.73
72636;BME280;60679;48.888;15.544;2023-03-01T05:07:52;97004.69;;;-7.06;70.53
72636;BME280;60679;48.888;15.544;2023-03-01T05:10:18;96998.38;;;-7.04;70.58
72636;BME280;60679;48.888;15.544;2023-03-01T05:12:43;96998.28;;;-7.02;71.02
72636;BME280;60679;48.888;15.544;2023-03-01T05:15:09;96991.38;;;-7.03;70.77
72636;BME280;60679;48.888;15.544;2023-03-01T05:17:35;96996.84;;;-6.93;71.00
72636;BME280;60679;48.888;15.544;2023-03-01T05:20:00;96989.94;;;-6.94;70.42
72636;BME280;60679;48.888;15.544;2023-03-01T05:22:27;96989.94;;;-6.94;70.85
72636;BME280;60679;48.888;15.544;2023-03-01T05:24:53;96983.00;;;-6.95;70.62
72636;BME280;60679;48.888;15.544;2023-03-01T05:27:19;96988.03;;;-6.92;70.70
72636;BME280;60679;48.888;15.544;2023-03-01T05:29:47;96995.19;;;-6.94;70.63
72636;BME280;60679;48.888;15.544;2023-03-01T05:32:13;97001.44;;;-6.97;71.11
72636;BME280;60679;48.888;15.544;2023-03-01T05:34:41;96995.06;;;-6.93;70.92
72636;BME280;60679;48.888;15.544;2023-03-01T05:37:06;96997.63;;;-6.79;70.62
72636;BME280;60679;48.888;15.544;2023-03-01T05:39:33;96994.50;;;-6.71;70.72
72636;BME280;60679;48.888;15.544;2023-03-01T05:41:59;96997.25;;;-6.60;71.06
72636;BME280;60679;48.888;15.544;2023-03-01T05:44:26;97003.19;;;-6.44;70.72
72636;BME280;60679;48.888;15.544;2023-03-01T05:46:52;97000.91;;;-6.23;70.66
72636;BME280;60679;48.888;15.544;2023-03-01T05:49:18;97014.91;;;-5.98;70.25
72636;BME280;60679;48.888;15.544;2023-03-01T05:51:51;97008.47;;;-5.81;70.90
72636;BME280;60679;48.888;15.544;2023-03-01T05:54:17;97011.94;;;-5.68;70.45
72636;BME280;60679;48.888;15.544;2023-03-01T05:56:44;97007.72;;;-5.58;70.67
72636;BME280;60679;48.888;15.544;2023-03-01T05:59:10;97010.84;;;-5.40;70.11
72636;BME280;60679;48.888;15.544;2023-03-01T06:01:36;97009.03;;;-5.27;70.27
72636;BME280;60679;48.888;15.544;2023-03-01T06:04:03;97016.47;;;-5.08;70.18
72636;BME280;60679;48.888;15.544;2023-03-01T06:06:29;97013.16;;;-4.99;70.21
72636;BME280;60679;48.888;15.544;2023-03-01T06:09:00;97018.16;;;-4.84;69.93
72636;BME280;60679;48.888;15.544;2023-03-01T06:11:25;97014.97;;;-4.76;69.92
72636;BME280;60679;48.888;15.544;2023-03-01T06:13:51;97002.91;;;-4.68;69.77
72636;BME280;60679;48.888;15.544;2023-03-01T06:16:16;97011.72;;;-4.56;69.55
72636;BME280;60679;48.888;15.544;2023-03-01T06:18:42;97015.03;;;-4.41;69.62
72636;BME280;60679;48.888;15.544;2023-03-01T06:21:08;97015.16;;;-4.32;69.65
72636;BME280;60679;48.888;15.544;2023-03-01T06:23:34;97006.47;;;-4.21;69.75
72636;BME280;60679;48.888;15.544;2023-03-01T06:26:00;97003.72;;;-4.09;69.70
72636;BME280;60679;48.888;15.544;2023-03-01T06:28:26;97003.66;;;-3.96;69.39
72636;BME280;60679;48.888;15.544;2023-03-01T06:30:51;97005.59;;;-3.87;69.34
72636;BME280;60679;48.888;15.544;2023-03-01T06:33:18;97007.41;;;-3.76;69.57
72636;BME280;60679;48.888;15.544;2023-03-01T06:35:46;97006.72;;;-3.67;69.58
72636;BME280;60679;48.888;15.544;2023-03-01T06:38:12;97004.06;;;-3.56;69.46
72636;BME280;60679;48.888;15.544;2023-03-01T06:40:40;97003.22;;;-3.45;69.34
72636;BME280;60679;48.888;15.544;2023-03-01T06:43:06;97012.22;;;-3.37;69.20
72636;BME280;60679;48.888;15.544;2023-03-01T06:45:33;97006.34;;;-3.29;69.29
72636;BME280;60679;48.888;15.544;2023-03-01T06:48:06;97006.56;;;-3.21;69.27
72636;BME280;60679;48.888;15.544;2023-03-01T06:50:32;97013.91;;;-3.14;69.39
72636;BME280;60679;48.888;15.544;2023-03-01T06:53:00;97010.66;;;-3.06;68.75
72636;BME280;60679;48.888;15.544;2023-03-01T06:55:28;97016.63;;;-2.93;68.74
72636;BME280;60679;48.888;15.544;2023-03-01T06:57:58;97009.19;;;-2.88;68.88
72636;BME280;60679;48.888;15.544;2023-03-01T07:00:26;97012.06;;;-2.80;68.90
72636;BME280;60679;48.888;15.544;2023-03-01T07:02:51;97008.28;;;-2.66;68.84
72636;BME280;60679;48.888;15.544;2023-03-01T07:05:17;97011.75;;;-2.55;68.45
72636;BME280;60679;48.888;15.544;2023-03-01T07:07:43;97000.16;;;-2.43;68.39
72636;BME280;60679;48.888;15.544;2023-03-01T07:10:09;97002.38;;;-2.27;68.49
72636;BME280;60679;48.888;15.544;2023-03-01T07:12:36;97007.22;;;-2.11;68.20
72636;BME280;60679;48.888;15.544;2023-03-01T07:15:02;97004.16;;;-1.96;67.93
72636;BME280;60679;48.888;15.544;2023-03-01T07:17:28;97002.72;;;-1.79;67.74
72636;BME280;60679;48.888;15.544;2023-03-01T07:19:54;96999.69;;;-1.75;67.73
72636;BME280;60679;48.888;15.544;2023-03-01T07:22:19;97008.97;;;-1.59;67.63
72636;BME280;60679;48.888;15.544;2023-03-01T07:24:48;96997.97;;;-1.55;67.43
72636;BME280;60679;48.888;15.544;2023-03-01T07:27:13;97009.91;;;-1.40;67.62
72636;BME280;60679;48.888;15.544;2023-03-01T07:29:39;97009.72;;;-1.27;67.32
72636;BME280;60679;48.888;15.544;2023-03-01T07:32:05;97006.41;;;-1.10;67.16
72636;BME280;60679;48.888;15.544;2023-03-01T07:34:31;97005.34;;;-0.98;67.02
72636;BME280;60679;48.888;15.544;2023-03-01T07:36:57;97002.59;;;-0.87;66.88
72636;BME280;60679;48.888;15.544;2023-03-01T07:39:23;97005.56;;;-0.71;66.65
72636;BME280;60679;48.888;15.544;2023-03-01T07:41:49;96988.97;;;-0.53;66.32
72636;BME280;60679;48.888;15.544;2023-03-01T07:44:15;96986.78;;;-0.29;66.05
72636;BME280;60679;48.888;15.544;2023-03-01T07:46:41;96988.47;;;-0.09;65.67
72636;BME280;60679;48.888;15.544;2023-03-01T07:49:07;96981.72;;;0.16;65.33
72636;BME280;60679;48.888;15.544;2023-03-01T07:51:32;96984.31;;;0.44;64.92
72636;BME280;60679;48.888;15.544;2023-03-01T07:54:01;96984.88;;;0.85;64.43
72636;BME280;60679;48.888;15.544;2023-03-01T07:56:26;96978.16;;;1.17;63.65
72636;BME280;60679;48.888;15.544;2023-03-01T07:58:52;96980.66;;;1.46;63.45
72636;BME280;60679;48.888;15.544;2023-03-01T08:01:20;96983.50;;;1.80;62.94
72636;BME280;60679;48.888;15.544;2023-03-01T08:03:46;96973.03;;;2.04;62.71
72636;BME280;60679;48.888;15.544;2023-03-01T08:06:14;96978.72;;;2.27;62.49
72636;BME280;60679;48.888;15.544;2023-03-01T08:08:40;96987.78;;;2.60;61.89
72636;BME280;60679;48.888;15.544;2023-03-01T08:11:07;96978.50;;;3.31;61.02
72636;BME280;60679;48.888;15.544;2023-03-01T08:13:35;96972.66;;;4.02;59.92
72636;BME280;60679;48.888;15.544;2023-03-01T08:16:05;96969.44;;;4.63;59.61
72636;BME280;60679;48.888;15.544;2023-03-01T08:18:34;96955.16;;;4.95;59.35
72636;BME280;60679;48.888;15.544;2023-03-01T08:21:13;96957.50;;;4.98;59.38
72636;BME280;60679;48.888;15.544;2023-03-01T08:23:40;96962.13;;;5.81;58.41
72636;BME280;60679;48.888;15.544;2023-03-01T08:26:09;96957.97;;;6.99;57.42
72636;BME280;60679;48.888;15.544;2023-03-01T08:28:35;96956.00;;;7.51;56.97
72636;BME280;60679;48.888;15.544;2023-03-01T08:31:20;96957.22;;;7.49;57.03
72636;BME280;60679;48.888;15.544;2023-03-01T08:33:47;96956.75;;;7.45;57.17
72636;BME280;60679;48.888;15.544;2023-03-01T08:36:21;96947.38;;;8.28;56.15
72636;BME280;60679;48.888;15.544;2023-03-01T08:38:46;96945.16;;;8.87;55.69
72636;BME280;60679;48.888;15.544;2023-03-01T08:41:12;96946.47;;;9.32;55.18
72636;BME280;60679;48.888;15.544;2023-03-01T08:43:41;96942.19;;;9.84;54.72
72636;BME280;60679;48.888;15.544;2023-03-01T08:46:07;96938.59;;;10.38;54.11
72636;BME280;60679;48.888;15.544;2023-03-01T08:48:35;96939.03;;;10.81;53.51
72636;BME280;60679;48.888;15.544;2023-03-01T08:51:15;96944.13;;;11.35;52.93
72636;BME280;60679;48.888;15.544;2023-03-01T08:53:41;96932.38;;;11.80;52.31
72636;BME280;60679;48.888;15.544;2023-03-01T08:56:07;96930.13;;;12.15;52.26
72636;BME280;60679;48.888;15.544;2023-03-01T08:58:34;96945.47;;;10.80;54.04
72636;BME280;60679;48.888;15.544;2023-03-01T09:01:15;96931.88;;;9.47;55.34
72636;BME280;60679;48.888;15.544;2023-03-01T09:03:42;96943.06;;;8.82;55.92
72636;BME280;60679;48.888;15.544;2023-03-01T09:06:18;96941.31;;;8.04;56.56
72636;BME280;60679;48.888;15.544;2023-03-01T09:08:49;96935.53;;;7.50;57.37
72636;BME280;60679;48.888;15.544;2023-03-01T09:11:21;96943.63;;;7.21;57.50
72636;BME280;60679;48.888;15.544;2023-03-01T09:13:48;96932.97;;;6.98;57.42
72636;BME280;60679;48.888;15.544;2023-03-01T09:16:15;96935.47;;;7.00;57.30
72636;BME280;60679;48.888;15.544;2023-03-01T09:18:43;96929.56;;;7.19;56.94
72636;BME280;60679;48.888;15.544;2023-03-01T09:21:13;96931.03;;;7.36;56.44
72636;BME280;60679;48.888;15.544;2023-03-01T09:23:42;96931.78;;;7.66;56.30
72636;BME280;60679;48.888;15.544;2023-03-01T09:26:10;96920.63;;;8.05;55.45
72636;BME280;60679;48.888;15.544;2023-03-01T09:28:36;96915.69;;;8.51;54.77
72636;BME280;60679;48.888;15.544;2023-03-01T09:31:09;96916.31;;;8.81;54.23
72636;BME280;60679;48.888;15.544;2023-03-01T09:33:37;96926.16;;;8.95;53.90
72636;BME280;60679;48.888;15.544;2023-03-01T09:36:13;96921.88;;;8.73;54.48
72636;BME280;60679;48.888;15.544;2023-03-01T09:38:39;96927.78;;;8.89;54.39
72636;BME280;60679;48.888;15.544;2023-03-01T09:41:44;96924.06;;;8.90;54.32
72636;BME280;60679;48.888;15.544;2023-03-01T09:46:59;96927.50;;;8.78;54.45
72636;BME280;60679;48.888;15.544;2023-03-01T09:49:30;96928.22;;;8.65;54.88
72636;BME280;60679;48.888;15.544;2023-03-01T09:52:06;96919.03;;;8.53;55.22
72636;BME280;60679;48.888;15.544;2023-03-01T09:54:37;96923.16;;;8.28;55.32
72636;BME280;60679;48.888;15.544;2023-03-01T09:59:45;96926.47;;;7.87;56.15
72636;BME280;60679;48.888;15.544;2023-03-01T10:02:51;96918.25;;;7.60;56.43
72636;BME280;60679;48.888;15.544;2023-03-01T10:05:35;96928.03;;;7.46;56.96
72636;BME280;60679;48.888;15.544;2023-03-01T10:08:19;96913.31;;;7.42;56.77
72636;BME280;60679;48.888;15.544;2023-03-01T10:10:52;96920.06;;;7.38;56.80
72636;BME280;60679;48.888;15.544;2023-03-01T10:16:14;96908.00;;;7.48;56.44
72636;BME280;60679;48.888;15.544;2023-03-01T10:18:47;96916.28;;;7.47;56.58
72636;BME280;60679;48.888;15.544;2023-03-01T10:21:19;96911.44;;;7.42;56.51
72636;BME280;60679;48.888;15.544;2023-03-01T10:23:46;96918.31;;;7.45;56.43
72636;BME280;60679;48.888;15.544;2023-03-01T10:26:34;96911.28;;;7.44;56.33
72636;BME280;60679;48.888;15.544;2023-03-01T10:29:11;96915.53;;;7.53;55.94
72636;BME280;60679;48.888;15.544;2023-03-01T10:31:46;96916.88;;;7.64;56.51
72636;BME280;60679;48.888;15.544;2023-03-01T10:34:27;96906.59;;;7.67;56.29
72636;BME280;60679;48.888;15.544;2023-03-01T10:36:57;96912.22;;;7.72;56.31
72636;BME280;60679;48.888;15.544;2023-03-01T10:39:26;96902.59;;;7.63;56.36
72636;BME280;60679;48.888;15.544;2023-03-01T10:42:18;96898.16;;;7.91;55.55
72636;BME280;60679;48.888;15.544;2023-03-01T10:44:47;96891.03;;;8.05;55.55
72636;BME280;60679;48.888;15.544;2023-03-01T10:47:33;96891.06;;;7.84;55.65
72636;BME280;60679;48.888;15.544;2023-03-01T10:50:04;96875.31;;;7.81;55.43
72636;BME280;60679;48.888;15.544;2023-03-01T10:52:31;96870.59;;;8.10;54.94
72636;BME280;60679;48.888;15.544;2023-03-01T10:54:59;96876.25;;;8.16;54.77
72636;BME280;60679;48.888;15.544;2023-03-01T10:57:55;96876.31;;;8.43;54.46
72636;BME280;60679;48.888;15.544;2023-03-01T11:00:24;96865.94;;;9.09;53.26
72636;BME280;60679;48.888;15.544;2023-03-01T11:03:15;96859.56;;;9.77;52.46
72636;BME280;60679;48.888;15.544;2023-03-01T11:06:24;96863.00;;;10.38;51.35
72636;BME280;60679;48.888;15.544;2023-03-01T11:08:45;96861.88;;;11.05;50.17
72636;BME280;60679;48.888;15.544;2023-03-01T11:19:38;96838.34;;;11.69;49.33
72636;BME280;60679;48.888;15.544;2023-03-01T11:22:11;96834.09;;;11.35;49.42
72636;BME280;60679;48.888;15.544;2023-03-01T11:24:49;96838.47;;;11.43;49.60
72636;BME280;60679;48.888;15.544;2023-03-01T11:27:23;96834.88;;;11.49;49.46
72636;BME280;60679;48.888;15.544;2023-03-01T11:29:57;96826.34;;;11.52;49.72
72636;BME280;60679;48.888;15.544;2023-03-01T11:32:31;96828.97;;;11.21;49.79
72636;BME280;60679;48.888;15.544;2023-03-01T11:35:10;96823.28;;;11.42;50.01
72636;BME280;60679;48.888;15.544;2023-03-01T11:37:44;96822.00;;;11.89;49.39
72636;BME280;60679;48.888;15.544;2023-03-01T11:40:46;96811.78;;;12.65;48.38
72636;BME280;60679;48.888;15.544;2023-03-01T11:43:26;96808.88;;;13.09;47.58
72636;BME280;60679;48.888;15.544;2023-03-01T11:57:01;96804.81;;;14.95;45.05
72636;BME280;60679;48.888;15.544;2023-03-01T12:00:02;96793.81;;;15.02;44.63
72636;BME280;60679;48.888;15.544;2023-03-01T12:05:56;96782.38;;;18.26;40.30
72636;BME280;60679;48.888;15.544;2023-03-01T12:08:49;96780.34;;;19.69;38.63
72636;BME280;60679;48.888;15.544;2023-03-01T12:14:13;96777.44;;;20.01;38.73
72636;BME280;60679;48.888;15.544;2023-03-01T12:22:32;96772.84;;;15.66;44.81
72636;BME280;60679;48.888;15.544;2023-03-01T12:25:25;96778.31;;;16.94;41.86
72636;BME280;60679;48.888;15.544;2023-03-01T12:28:18;96788.34;;;15.14;45.40
72636;BME280;60679;48.888;15.544;2023-03-01T12:31:23;96785.41;;;13.33;47.23
72636;BME280;60679;48.888;15.544;2023-03-01T12:49:44;96782.63;;;9.68;51.93
72636;BME280;60679;48.888;15.544;2023-03-01T12:54:50;96782.47;;;9.15;52.43
72636;BME280;60679;48.888;15.544;2023-03-01T12:57:37;96774.94;;;8.98;52.45
72636;BME280;60679;48.888;15.544;2023-03-01T13:00:27;96783.94;;;8.70;52.50
72636;BME280;60679;48.888;15.544;2023-03-01T13:03:12;96778.22;;;8.52;52.84
72636;BME280;60679;48.888;15.544;2023-03-01T13:08:27;96767.94;;;8.28;53.14
72636;BME280;60679;48.888;15.544;2023-03-01T13:11:03;96765.78;;;8.45;53.22
72636;BME280;60679;48.888;15.544;2023-03-01T13:13:30;96767.38;;;8.39;52.95
72636;BME280;60679;48.888;15.544;2023-03-01T13:15:56;96767.28;;;8.26;53.08
72636;BME280;60679;48.888;15.544;2023-03-01T13:20:55;96771.28;;;7.81;53.74
72636;BME280;60679;48.888;15.544;2023-03-01T13:26:12;96769.50;;;7.46;53.78
72636;BME280;60679;48.888;15.544;2023-03-01T13:41:51;96796.81;;;6.92;54.40
72636;BME280;60679;48.888;15.544;2023-03-01T13:46:58;96784.16;;;6.72;54.55
72636;BME280;60679;48.888;15.544;2023-03-01T13:54:46;96797.03;;;6.47;54.77
72636;BME280;60679;48.888;15.544;2023-03-01T13:57:20;96800.75;;;6.46;54.79
72636;BME280;60679;48.888;15.544;2023-03-01T13:59:47;96789.91;;;6.54;54.69
72636;BME280;60679;48.888;15.544;2023-03-01T14:02:13;96795.28;;;6.69;54.53
72636;BME280;60679;48.888;15.544;2023-03-01T14:04:38;96779.34;;;6.82;54.18
72636;BME280;60679;48.888;15.544;2023-03-01T14:09:43;96785.53;;;6.97;53.75
72636;BME280;60679;48.888;15.544;2023-03-01T14:19:41;96765.09;;;7.38;52.75
72636;BME280;60679;48.888;15.544;2023-03-01T14:22:49;96770.31;;;7.89;51.94
72636;BME280;60679;48.888;15.544;2023-03-01T14:27:58;96768.69;;;9.71;48.88
72636;BME280;60679;48.888;15.544;2023-03-01T14:30:27;96766.22;;;10.55;47.98
72636;BME280;60679;48.888;15.544;2023-03-01T14:32:58;96761.88;;;10.27;48.46
72636;BME280;60679;48.888;15.544;2023-03-01T14:35:32;96751.31;;;9.93;49.48
72636;BME280;60679;48.888;15.544;2023-03-01T14:37:59;96740.59;;;11.90;46.82
72636;BME280;60679;48.888;15.544;2023-03-01T14:40:31;96742.03;;;17.15;39.93
72636;BME280;60679;48.888;15.544;2023-03-01T14:42:58;96740.72;;;15.39;43.00
72636;BME280;60679;48.888;15.544;2023-03-01T14:45:27;96740.66;;;12.51;47.41
72636;BME280;60679;48.888;15.544;2023-03-01T14:47:53;96725.94;;;15.07;43.50
72636;BME280;60679;48.888;15.544;2023-03-01T14:50:31;96722.31;;;19.25;38.34
72636;BME280;60679;48.888;15.544;2023-03-01T14:53:04;96720.25;;;16.43;42.45
72636;BME280;60679;48.888;15.544;2023-03-01T14:55:33;96725.56;;;16.16;42.78
72636;BME280;60679;48.888;15.544;2023-03-01T14:58:03;96724.19;;;12.89;48.18
72636;BME280;60679;48.888;15.544;2023-03-01T15:00:32;96715.81;;;11.93;49.45
72636;BME280;60679;48.888;15.544;2023-03-01T15:03:04;96712.97;;;10.75;51.09
72636;BME280;60679;48.888;15.544;2023-03-01T15:05:35;96730.28;;;9.36;53.40
72636;BME280;60679;48.888;15.544;2023-03-01T15:08:02;96721.53;;;9.08;53.70
72636;BME280;60679;48.888;15.544;2023-03-01T15:10:32;96720.19;;;9.91;52.14
72636;BME280;60679;48.888;15.544;2023-03-01T15:13:22;96718.09;;;9.93;51.98